Airfield :
LOGIN :

Register | Disclaimer

   EN    FR    IT 

 










Legend :    VFR   Marginal VFR   IFR   Intensive IFR   Very Intensive IFR
Visi :
Ceiling :
>= 8 km
>= 3000ft
5 to 8 km
1000 to 3000 ft
1500m to 5 km
500 to 1000 ft
800 to 1500m
200 to 500 ft
< 800m
< 200 ft
Symbols :   Thunderstorms  Fog  Heavy snow  Heavy precipitations  Wind > 20 kt
SIGMETs :     Misc.  Thunderstorms  Icing  Turbulence  Mountain Waves  Volcanic Ashes






- Airport Elevation : 138 ft
- IATA code : BIO


LEBB - Bilbao

CURRENT METAR :
  • 200000Z AUTO VRB02KT 3100 RA BR VV011 14/13 Q1003

EXPIRED METARs :
  • 192330Z AUTO VRB01KT 9999 -RA FEW012 BKN030 14/13 Q1003
  • 192300Z AUTO 28003KT 9999 -RA BKN029 14/13 Q1003
  • 192230Z AUTO 29003KT 9000 -RA FEW012 SCT018 BKN033 14/13 Q1003
  • 192200Z AUTO 27003KT 230V300 9999 -RA SCT009 SCT015 BKN032 14/14 Q1004
  • 192130Z 27003KT 220V320 9999 -RA FEW010 BKN030 BKN040 14/14 Q1003 RERA TEMPO 3000 RA BKN010

TAF TAF LEBB
Valid from the 20 at 00:00 until the 21 at 00:00 UTC


192300Z 2000/2024 30009KT 9999 -RA SCT015 BKN030 TX15/2016Z TN11/2007Z
TEMPO 2000/2018 3000 RA SHRA BKN014 SCT025TCU
PROB40
TEMPO 2003/2021 SHRA TS SCT025TCU SCT030CB
TEMPO 2003/2018 30015G25KT



MET'MAP, your aeronautical weather chart ! - Copyright ORBIFLY December 2007 - Disclaimer

ORBIFLY MET'MAP TEAM :

Programming & Development : Alexandra Zaïnal
Concept & Development : Baudouin d'Aumeries
Co-Development & Prog : Marc-Olivier Méhu
Technical & hardware support : Manuel Goepfert

Contact : metmap@orbifly.com




SOURCES & CREDITS :

   NOAA